sensor_id;sensor_type;location;lat;lon;timestamp;P1;durP1;ratioP1;P2;durP2;ratioP2
6149;SDS011;3106;42.670;23.318;2022-07-29T00:01:24;14.80;;;10.70;;
6149;SDS011;3106;42.670;23.318;2022-07-29T00:03:51;14.33;;;10.90;;
6149;SDS011;3106;42.670;23.318;2022-07-29T00:06:18;15.67;;;10.53;;
6149;SDS011;3106;42.670;23.318;2022-07-29T00:08:46;13.23;;;9.87;;
6149;SDS011;3106;42.670;23.318;2022-07-29T00:11:13;13.50;;;10.57;;
6149;SDS011;3106;42.670;23.318;2022-07-29T00:13:39;16.40;;;10.30;;
6149;SDS011;3106;42.670;23.318;2022-07-29T00:16:08;13.30;;;9.87;;
6149;SDS011;3106;42.670;23.318;2022-07-29T00:18:34;15.10;;;10.07;;
6149;SDS011;3106;42.670;23.318;2022-07-29T00:21:01;16.17;;;11.27;;
6149;SDS011;3106;42.670;23.318;2022-07-29T00:23:28;15.00;;;10.13;;
6149;SDS011;3106;42.670;23.318;2022-07-29T00:25:55;12.87;;;9.57;;
6149;SDS011;3106;42.670;23.318;2022-07-29T00:28:22;16.70;;;10.00;;
6149;SDS011;3106;42.670;23.318;2022-07-29T00:30:48;13.50;;;9.53;;
6149;SDS011;3106;42.670;23.318;2022-07-29T00:33:17;11.87;;;9.77;;
6149;SDS011;3106;42.670;23.318;2022-07-29T00:35:43;10.83;;;9.10;;
6149;SDS011;3106;42.670;23.318;2022-07-29T00:38:09;10.30;;;9.13;;
6149;SDS011;3106;42.670;23.318;2022-07-29T00:40:37;10.53;;;9.40;;
6149;SDS011;3106;42.670;23.318;2022-07-29T00:43:04;13.00;;;9.77;;
6149;SDS011;3106;42.670;23.318;2022-07-29T00:45:31;11.73;;;8.97;;
6149;SDS011;3106;42.670;23.318;2022-07-29T00:47:58;14.30;;;10.07;;
6149;SDS011;3106;42.670;23.318;2022-07-29T00:50:26;13.23;;;9.20;;
6149;SDS011;3106;42.670;23.318;2022-07-29T00:52:53;13.27;;;10.10;;
6149;SDS011;3106;42.670;23.318;2022-07-29T00:55:20;10.20;;;9.07;;
6149;SDS011;3106;42.670;23.318;2022-07-29T00:57:47;13.50;;;9.63;;
6149;SDS011;3106;42.670;23.318;2022-07-29T01:00:15;20.17;;;12.90;;
6149;SDS011;3106;42.670;23.318;2022-07-29T01:02:44;26.20;;;15.13;;
6149;SDS011;3106;42.670;23.318;2022-07-29T01:05:13;24.60;;;14.17;;
6149;SDS011;3106;42.670;23.318;2022-07-29T01:07:44;24.13;;;14.47;;
6149;SDS011;3106;42.670;23.318;2022-07-29T01:10:13;20.17;;;14.17;;
6149;SDS011;3106;42.670;23.318;2022-07-29T01:12:42;22.67;;;15.27;;
6149;SDS011;3106;42.670;23.318;2022-07-29T01:15:11;22.43;;;16.17;;
6149;SDS011;3106;42.670;23.318;2022-07-29T01:17:41;22.47;;;16.20;;
6149;SDS011;3106;42.670;23.318;2022-07-29T01:20:13;25.20;;;15.10;;
6149;SDS011;3106;42.670;23.318;2022-07-29T01:22:53;22.20;;;15.13;;
6149;SDS011;3106;42.670;23.318;2022-07-29T01:25:40;25.37;;;15.27;;
6149;SDS011;3106;42.670;23.318;2022-07-29T01:31:20;24.17;;;15.67;;
6149;SDS011;3106;42.670;23.318;2022-07-29T01:33:53;23.67;;;15.23;;
6149;SDS011;3106;42.670;23.318;2022-07-29T01:36:26;19.90;;;14.73;;
6149;SDS011;3106;42.670;23.318;2022-07-29T01:38:58;30.53;;;15.27;;
6149;SDS011;3106;42.670;23.318;2022-07-29T01:41:31;19.07;;;14.33;;
6149;SDS011;3106;42.670;23.318;2022-07-29T01:44:02;19.23;;;14.93;;
6149;SDS011;3106;42.670;23.318;2022-07-29T01:46:38;28.37;;;14.70;;
6149;SDS011;3106;42.670;23.318;2022-07-29T01:49:08;24.53;;;14.30;;
6149;SDS011;3106;42.670;23.318;2022-07-29T01:51:41;21.40;;;15.00;;
6149;SDS011;3106;42.670;23.318;2022-07-29T01:54:13;23.90;;;14.90;;
6149;SDS011;3106;42.670;23.318;2022-07-29T01:56:45;21.37;;;15.87;;
6149;SDS011;3106;42.670;23.318;2022-07-29T01:59:16;19.87;;;14.50;;
6149;SDS011;3106;42.670;23.318;2022-07-29T02:01:46;24.50;;;15.33;;
6149;SDS011;3106;42.670;23.318;2022-07-29T02:04:15;16.63;;;13.57;;
6149;SDS011;3106;42.670;23.318;2022-07-29T02:06:45;24.20;;;14.87;;
6149;SDS011;3106;42.670;23.318;2022-07-29T02:09:15;23.73;;;14.67;;
6149;SDS011;3106;42.670;23.318;2022-07-29T02:11:45;20.20;;;14.43;;
6149;SDS011;3106;42.670;23.318;2022-07-29T02:14:15;26.10;;;14.77;;
6149;SDS011;3106;42.670;23.318;2022-07-29T02:16:46;21.90;;;15.87;;
6149;SDS011;3106;42.670;23.318;2022-07-29T02:19:15;18.17;;;14.20;;
6149;SDS011;3106;42.670;23.318;2022-07-29T02:21:44;22.03;;;15.33;;
6149;SDS011;3106;42.670;23.318;2022-07-29T02:24:12;26.30;;;15.23;;
6149;SDS011;3106;42.670;23.318;2022-07-29T02:26:41;21.63;;;14.50;;
6149;SDS011;3106;42.670;23.318;2022-07-29T02:29:10;24.20;;;16.30;;
6149;SDS011;3106;42.670;23.318;2022-07-29T02:31:39;21.30;;;14.33;;
6149;SDS011;3106;42.670;23.318;2022-07-29T02:34:13;19.30;;;15.17;;
6149;SDS011;3106;42.670;23.318;2022-07-29T02:36:41;21.10;;;14.03;;
6149;SDS011;3106;42.670;23.318;2022-07-29T02:39:11;23.50;;;16.10;;
6149;SDS011;3106;42.670;23.318;2022-07-29T02:41:40;24.83;;;15.17;;
6149;SDS011;3106;42.670;23.318;2022-07-29T02:44:10;19.77;;;13.87;;
6149;SDS011;3106;42.670;23.318;2022-07-29T02:46:42;26.17;;;14.63;;
6149;SDS011;3106;42.670;23.318;2022-07-29T02:49:15;22.27;;;16.83;;
6149;SDS011;3106;42.670;23.318;2022-07-29T02:51:45;27.20;;;15.00;;
6149;SDS011;3106;42.670;23.318;2022-07-29T02:54:22;19.60;;;15.10;;
6149;SDS011;3106;42.670;23.318;2022-07-29T02:56:53;19.20;;;13.97;;
6149;SDS011;3106;42.670;23.318;2022-07-29T02:59:24;23.77;;;13.20;;
6149;SDS011;3106;42.670;23.318;2022-07-29T03:01:54;26.93;;;13.57;;
6149;SDS011;3106;42.670;23.318;2022-07-29T03:04:25;18.47;;;14.00;;
6149;SDS011;3106;42.670;23.318;2022-07-29T03:06:54;17.60;;;11.90;;
6149;SDS011;3106;42.670;23.318;2022-07-29T03:09:23;19.50;;;11.90;;
6149;SDS011;3106;42.670;23.318;2022-07-29T03:11:51;16.60;;;11.70;;
6149;SDS011;3106;42.670;23.318;2022-07-29T03:14:19;21.63;;;11.97;;
6149;SDS011;3106;42.670;23.318;2022-07-29T03:16:48;17.87;;;10.57;;
6149;SDS011;3106;42.670;23.318;2022-07-29T03:19:15;15.40;;;10.20;;
6149;SDS011;3106;42.670;23.318;2022-07-29T03:21:44;15.90;;;9.53;;
6149;SDS011;3106;42.670;23.318;2022-07-29T03:24:23;14.77;;;10.77;;
6149;SDS011;3106;42.670;23.318;2022-07-29T03:26:51;15.07;;;10.40;;
6149;SDS011;3106;42.670;23.318;2022-07-29T03:29:18;16.47;;;10.43;;
6149;SDS011;3106;42.670;23.318;2022-07-29T03:31:45;13.30;;;9.03;;
6149;SDS011;3106;42.670;23.318;2022-07-29T03:34:11;12.60;;;9.27;;
6149;SDS011;3106;42.670;23.318;2022-07-29T03:36:38;13.73;;;10.03;;
6149;SDS011;3106;42.670;23.318;2022-07-29T03:39:06;13.83;;;8.90;;
6149;SDS011;3106;42.670;23.318;2022-07-29T03:41:35;13.40;;;9.60;;
6149;SDS011;3106;42.670;23.318;2022-07-29T03:44:04;13.77;;;9.53;;
6149;SDS011;3106;42.670;23.318;2022-07-29T03:46:33;16.00;;;10.10;;
6149;SDS011;3106;42.670;23.318;2022-07-29T03:49:03;13.40;;;10.50;;
6149;SDS011;3106;42.670;23.318;2022-07-29T03:51:33;13.00;;;9.73;;
6149;SDS011;3106;42.670;23.318;2022-07-29T03:54:01;18.93;;;9.70;;
6149;SDS011;3106;42.670;23.318;2022-07-29T03:56:31;13.30;;;10.60;;
6149;SDS011;3106;42.670;23.318;2022-07-29T03:59:01;16.63;;;10.90;;
6149;SDS011;3106;42.670;23.318;2022-07-29T04:01:29;16.60;;;10.93;;
6149;SDS011;3106;42.670;23.318;2022-07-29T04:03:59;21.67;;;11.10;;
6149;SDS011;3106;42.670;23.318;2022-07-29T04:06:26;16.27;;;11.07;;
6149;SDS011;3106;42.670;23.318;2022-07-29T04:08:53;16.53;;;10.70;;
6149;SDS011;3106;42.670;23.318;2022-07-29T04:11:20;15.40;;;12.03;;
6149;SDS011;3106;42.670;23.318;2022-07-29T04:13:48;17.23;;;11.60;;
6149;SDS011;3106;42.670;23.318;2022-07-29T04:16:15;24.93;;;10.90;;
6149;SDS011;3106;42.670;23.318;2022-07-29T04:18:42;17.60;;;10.93;;
6149;SDS011;3106;42.670;23.318;2022-07-29T04:21:09;16.30;;;10.03;;
6149;SDS011;3106;42.670;23.318;2022-07-29T04:23:36;16.77;;;12.60;;
6149;SDS011;3106;42.670;23.318;2022-07-29T04:26:02;18.77;;;11.07;;
6149;SDS011;3106;42.670;23.318;2022-07-29T04:28:29;16.80;;;11.87;;
6149;SDS011;3106;42.670;23.318;2022-07-29T04:30:57;16.63;;;12.23;;
6149;SDS011;3106;42.670;23.318;2022-07-29T04:33:24;20.60;;;12.27;;
6149;SDS011;3106;42.670;23.318;2022-07-29T04:35:51;18.10;;;11.50;;
6149;SDS011;3106;42.670;23.318;2022-07-29T04:38:18;14.57;;;11.70;;
6149;SDS011;3106;42.670;23.318;2022-07-29T04:40:44;20.30;;;13.70;;
6149;SDS011;3106;42.670;23.318;2022-07-29T04:43:11;19.10;;;9.00;;
6149;SDS011;3106;42.670;23.318;2022-07-29T04:45:38;21.73;;;9.80;;
6149;SDS011;3106;42.670;23.318;2022-07-29T04:48:07;11.23;;;7.70;;
6149;SDS011;3106;42.670;23.318;2022-07-29T04:50:34;13.73;;;7.73;;
6149;SDS011;3106;42.670;23.318;2022-07-29T04:53:00;10.07;;;8.03;;
6149;SDS011;3106;42.670;23.318;2022-07-29T04:55:27;21.87;;;7.47;;
6149;SDS011;3106;42.670;23.318;2022-07-29T04:57:54;20.67;;;7.47;;
6149;SDS011;3106;42.670;23.318;2022-07-29T05:00:21;8.60;;;7.50;;
6149;SDS011;3106;42.670;23.318;2022-07-29T05:02:48;14.27;;;8.30;;
6149;SDS011;3106;42.670;23.318;2022-07-29T05:05:16;10.07;;;7.97;;
6149;SDS011;3106;42.670;23.318;2022-07-29T05:07:43;9.70;;;7.73;;
6149;SDS011;3106;42.670;23.318;2022-07-29T05:10:10;9.17;;;8.27;;
6149;SDS011;3106;42.670;23.318;2022-07-29T05:12:37;14.70;;;8.00;;
6149;SDS011;3106;42.670;23.318;2022-07-29T05:15:04;12.30;;;8.30;;
6149;SDS011;3106;42.670;23.318;2022-07-29T05:17:32;10.00;;;8.23;;
6149;SDS011;3106;42.670;23.318;2022-07-29T05:19:58;10.20;;;8.60;;
6149;SDS011;3106;42.670;23.318;2022-07-29T05:22:27;10.17;;;8.67;;
6149;SDS011;3106;42.670;23.318;2022-07-29T05:24:53;9.50;;;8.50;;
6149;SDS011;3106;42.670;23.318;2022-07-29T05:27:20;16.20;;;8.73;;
6149;SDS011;3106;42.670;23.318;2022-07-29T05:29:47;16.60;;;8.10;;
6149;SDS011;3106;42.670;23.318;2022-07-29T05:32:14;11.37;;;9.07;;
6149;SDS011;3106;42.670;23.318;2022-07-29T05:34:41;20.30;;;8.13;;
6149;SDS011;3106;42.670;23.318;2022-07-29T05:37:08;13.13;;;8.20;;
6149;SDS011;3106;42.670;23.318;2022-07-29T05:39:36;17.93;;;8.17;;
6149;SDS011;3106;42.670;23.318;2022-07-29T05:42:03;9.50;;;7.17;;
6149;SDS011;3106;42.670;23.318;2022-07-29T05:44:35;10.57;;;7.60;;
6149;SDS011;3106;42.670;23.318;2022-07-29T05:47:03;9.93;;;7.63;;
6149;SDS011;3106;42.670;23.318;2022-07-29T05:49:29;8.50;;;7.33;;
6149;SDS011;3106;42.670;23.318;2022-07-29T05:51:56;13.30;;;7.27;;
6149;SDS011;3106;42.670;23.318;2022-07-29T05:54:23;11.43;;;7.27;;
6149;SDS011;3106;42.670;23.318;2022-07-29T05:56:52;14.00;;;7.70;;
6149;SDS011;3106;42.670;23.318;2022-07-29T05:59:18;9.00;;;7.07;;
6149;SDS011;3106;42.670;23.318;2022-07-29T06:01:45;8.40;;;6.90;;
6149;SDS011;3106;42.670;23.318;2022-07-29T06:04:12;8.23;;;7.07;;
6149;SDS011;3106;42.670;23.318;2022-07-29T06:06:39;12.37;;;6.93;;
6149;SDS011;3106;42.670;23.318;2022-07-29T06:09:06;9.53;;;7.20;;
6149;SDS011;3106;42.670;23.318;2022-07-29T06:11:33;10.80;;;7.10;;
6149;SDS011;3106;42.670;23.318;2022-07-29T06:14:01;9.00;;;6.73;;
6149;SDS011;3106;42.670;23.318;2022-07-29T06:16:28;7.90;;;7.10;;
6149;SDS011;3106;42.670;23.318;2022-07-29T06:18:55;14.23;;;6.70;;
6149;SDS011;3106;42.670;23.318;2022-07-29T06:21:22;7.43;;;6.60;;
6149;SDS011;3106;42.670;23.318;2022-07-29T06:23:49;9.00;;;6.60;;
6149;SDS011;3106;42.670;23.318;2022-07-29T06:26:15;8.33;;;6.20;;
6149;SDS011;3106;42.670;23.318;2022-07-29T06:28:42;14.70;;;7.17;;
6149;SDS011;3106;42.670;23.318;2022-07-29T06:31:10;8.30;;;5.90;;
6149;SDS011;3106;42.670;23.318;2022-07-29T06:33:37;11.07;;;6.57;;
6149;SDS011;3106;42.670;23.318;2022-07-29T06:36:04;9.23;;;6.50;;
6149;SDS011;3106;42.670;23.318;2022-07-29T06:38:32;9.10;;;6.00;;
6149;SDS011;3106;42.670;23.318;2022-07-29T06:40:59;12.03;;;6.77;;
6149;SDS011;3106;42.670;23.318;2022-07-29T06:43:27;11.47;;;6.43;;
6149;SDS011;3106;42.670;23.318;2022-07-29T06:45:57;14.57;;;6.67;;
6149;SDS011;3106;42.670;23.318;2022-07-29T06:48:26;7.30;;;6.40;;
6149;SDS011;3106;42.670;23.318;2022-07-29T06:50:53;16.60;;;6.83;;
6149;SDS011;3106;42.670;23.318;2022-07-29T06:53:20;10.73;;;7.00;;
6149;SDS011;3106;42.670;23.318;2022-07-29T06:55:47;10.10;;;6.60;;
6149;SDS011;3106;42.670;23.318;2022-07-29T06:58:14;8.77;;;7.00;;
6149;SDS011;3106;42.670;23.318;2022-07-29T07:00:43;13.47;;;7.00;;
6149;SDS011;3106;42.670;23.318;2022-07-29T07:03:10;12.93;;;7.43;;
6149;SDS011;3106;42.670;23.318;2022-07-29T07:05:38;13.23;;;6.70;;
6149;SDS011;3106;42.670;23.318;2022-07-29T07:08:05;10.83;;;6.43;;
6149;SDS011;3106;42.670;23.318;2022-07-29T07:10:33;12.37;;;6.90;;
6149;SDS011;3106;42.670;23.318;2022-07-29T07:13:00;13.07;;;7.23;;
6149;SDS011;3106;42.670;23.318;2022-07-29T07:15:27;8.40;;;7.03;;
6149;SDS011;3106;42.670;23.318;2022-07-29T07:17:54;8.17;;;7.20;;
6149;SDS011;3106;42.670;23.318;2022-07-29T07:20:22;10.50;;;6.73;;
6149;SDS011;3106;42.670;23.318;2022-07-29T07:22:50;10.97;;;6.87;;
6149;SDS011;3106;42.670;23.318;2022-07-29T07:25:17;8.03;;;6.40;;
6149;SDS011;3106;42.670;23.318;2022-07-29T07:27:44;12.03;;;6.53;;
6149;SDS011;3106;42.670;23.318;2022-07-29T07:30:11;15.63;;;6.30;;
6149;SDS011;3106;42.670;23.318;2022-07-29T07:32:39;6.87;;;6.17;;
6149;SDS011;3106;42.670;23.318;2022-07-29T07:35:06;13.73;;;6.10;;
6149;SDS011;3106;42.670;23.318;2022-07-29T07:37:34;5.90;;;5.30;;
6149;SDS011;3106;42.670;23.318;2022-07-29T07:40:03;9.03;;;5.83;;
6149;SDS011;3106;42.670;23.318;2022-07-29T07:42:31;12.90;;;5.73;;
6149;SDS011;3106;42.670;23.318;2022-07-29T07:44:58;14.53;;;5.87;;
6149;SDS011;3106;42.670;23.318;2022-07-29T07:47:24;8.20;;;5.60;;
6149;SDS011;3106;42.670;23.318;2022-07-29T07:49:52;14.07;;;6.20;;
6149;SDS011;3106;42.670;23.318;2022-07-29T07:52:20;10.93;;;5.47;;
6149;SDS011;3106;42.670;23.318;2022-07-29T07:54:48;15.33;;;5.30;;
6149;SDS011;3106;42.670;23.318;2022-07-29T07:57:16;6.90;;;5.90;;
6149;SDS011;3106;42.670;23.318;2022-07-29T07:59:43;9.60;;;5.60;;
6149;SDS011;3106;42.670;23.318;2022-07-29T08:02:10;7.37;;;5.80;;
6149;SDS011;3106;42.670;23.318;2022-07-29T08:04:37;7.70;;;5.70;;
6149;SDS011;3106;42.670;23.318;2022-07-29T08:07:05;6.90;;;5.57;;
6149;SDS011;3106;42.670;23.318;2022-07-29T08:09:33;8.23;;;6.00;;
6149;SDS011;3106;42.670;23.318;2022-07-29T08:12:00;7.43;;;5.30;;
6149;SDS011;3106;42.670;23.318;2022-07-29T08:14:30;8.17;;;5.63;;
6149;SDS011;3106;42.670;23.318;2022-07-29T08:16:57;6.73;;;5.20;;
6149;SDS011;3106;42.670;23.318;2022-07-29T08:19:24;6.20;;;5.60;;
6149;SDS011;3106;42.670;23.318;2022-07-29T08:21:51;8.83;;;5.20;;
6149;SDS011;3106;42.670;23.318;2022-07-29T08:24:18;6.97;;;5.33;;
6149;SDS011;3106;42.670;23.318;2022-07-29T08:27:02;6.77;;;5.10;;
6149;SDS011;3106;42.670;23.318;2022-07-29T08:29:31;5.83;;;4.97;;
6149;SDS011;3106;42.670;23.318;2022-07-29T08:31:58;7.67;;;4.70;;
6149;SDS011;3106;42.670;23.318;2022-07-29T08:34:25;6.23;;;5.30;;
6149;SDS011;3106;42.670;23.318;2022-07-29T08:36:52;8.90;;;4.40;;
6149;SDS011;3106;42.670;23.318;2022-07-29T08:39:19;10.53;;;4.13;;
6149;SDS011;3106;42.670;23.318;2022-07-29T08:41:45;24.67;;;5.37;;
6149;SDS011;3106;42.670;23.318;2022-07-29T08:44:13;6.70;;;4.77;;
6149;SDS011;3106;42.670;23.318;2022-07-29T08:46:42;5.27;;;4.37;;
6149;SDS011;3106;42.670;23.318;2022-07-29T08:49:09;4.80;;;4.40;;
6149;SDS011;3106;42.670;23.318;2022-07-29T08:51:36;4.53;;;4.23;;
6149;SDS011;3106;42.670;23.318;2022-07-29T08:54:06;8.93;;;5.20;;
6149;SDS011;3106;42.670;23.318;2022-07-29T08:56:35;6.50;;;4.63;;
6149;SDS011;3106;42.670;23.318;2022-07-29T08:59:03;7.80;;;4.63;;
6149;SDS011;3106;42.670;23.318;2022-07-29T09:01:32;5.50;;;4.30;;
6149;SDS011;3106;42.670;23.318;2022-07-29T09:04:01;4.50;;;4.10;;
6149;SDS011;3106;42.670;23.318;2022-07-29T09:06:31;13.47;;;4.80;;
6149;SDS011;3106;42.670;23.318;2022-07-29T09:09:00;6.37;;;4.70;;
6149;SDS011;3106;42.670;23.318;2022-07-29T09:11:27;6.10;;;5.50;;
6149;SDS011;3106;42.670;23.318;2022-07-29T09:13:54;5.20;;;4.70;;
6149;SDS011;3106;42.670;23.318;2022-07-29T09:16:21;8.33;;;4.53;;
6149;SDS011;3106;42.670;23.318;2022-07-29T09:18:48;5.80;;;4.70;;
6149;SDS011;3106;42.670;23.318;2022-07-29T09:21:16;6.00;;;5.40;;
6149;SDS011;3106;42.670;23.318;2022-07-29T09:24:02;10.33;;;5.67;;
6149;SDS011;3106;42.670;23.318;2022-07-29T09:26:32;4.70;;;4.30;;
6149;SDS011;3106;42.670;23.318;2022-07-29T09:29:07;6.97;;;4.40;;
6149;SDS011;3106;42.670;23.318;2022-07-29T09:31:35;8.03;;;4.60;;
6149;SDS011;3106;42.670;23.318;2022-07-29T09:34:04;10.80;;;4.37;;
6149;SDS011;3106;42.670;23.318;2022-07-29T09:36:37;8.20;;;5.40;;
6149;SDS011;3106;42.670;23.318;2022-07-29T09:39:05;7.40;;;4.27;;
6149;SDS011;3106;42.670;23.318;2022-07-29T09:41:43;8.17;;;4.57;;
6149;SDS011;3106;42.670;23.318;2022-07-29T09:44:11;9.40;;;4.77;;
6149;SDS011;3106;42.670;23.318;2022-07-29T09:46:40;7.10;;;5.07;;
6149;SDS011;3106;42.670;23.318;2022-07-29T09:49:08;5.57;;;4.57;;
6149;SDS011;3106;42.670;23.318;2022-07-29T09:51:37;6.20;;;5.00;;
6149;SDS011;3106;42.670;23.318;2022-07-29T09:56:51;8.13;;;5.33;;
6149;SDS011;3106;42.670;23.318;2022-07-29T09:59:19;7.80;;;5.50;;
6149;SDS011;3106;42.670;23.318;2022-07-29T10:01:49;10.73;;;5.57;;
6149;SDS011;3106;42.670;23.318;2022-07-29T10:04:16;13.60;;;5.47;;
6149;SDS011;3106;42.670;23.318;2022-07-29T10:09:30;11.47;;;5.80;;
6149;SDS011;3106;42.670;23.318;2022-07-29T10:12:04;10.57;;;5.50;;
6149;SDS011;3106;42.670;23.318;2022-07-29T10:14:33;8.70;;;5.23;;
6149;SDS011;3106;42.670;23.318;2022-07-29T10:17:00;7.00;;;5.20;;
6149;SDS011;3106;42.670;23.318;2022-07-29T10:19:28;5.80;;;5.20;;
6149;SDS011;3106;42.670;23.318;2022-07-29T10:21:57;8.40;;;5.23;;
6149;SDS011;3106;42.670;23.318;2022-07-29T10:24:26;8.77;;;5.37;;
6149;SDS011;3106;42.670;23.318;2022-07-29T10:26:53;5.50;;;5.00;;
6149;SDS011;3106;42.670;23.318;2022-07-29T10:29:21;8.13;;;4.83;;
6149;SDS011;3106;42.670;23.318;2022-07-29T10:31:49;12.40;;;5.20;;
6149;SDS011;3106;42.670;23.318;2022-07-29T10:34:27;8.40;;;5.40;;
6149;SDS011;3106;42.670;23.318;2022-07-29T10:37:03;8.00;;;4.53;;
6149;SDS011;3106;42.670;23.318;2022-07-29T10:39:46;11.20;;;5.50;;
6149;SDS011;3106;42.670;23.318;2022-07-29T10:42:22;8.83;;;4.70;;
6149;SDS011;3106;42.670;23.318;2022-07-29T10:44:51;6.47;;;4.70;;
6149;SDS011;3106;42.670;23.318;2022-07-29T10:47:19;5.87;;;5.30;;
6149;SDS011;3106;42.670;23.318;2022-07-29T10:49:57;8.03;;;6.03;;
6149;SDS011;3106;42.670;23.318;2022-07-29T10:52:24;14.73;;;6.40;;
6149;SDS011;3106;42.670;23.318;2022-07-29T10:58:11;10.53;;;6.23;;
6149;SDS011;3106;42.670;23.318;2022-07-29T11:00:39;5.13;;;4.20;;
6149;SDS011;3106;42.670;23.318;2022-07-29T11:03:07;5.43;;;4.93;;
6149;SDS011;3106;42.670;23.318;2022-07-29T11:08:23;8.17;;;5.80;;
6149;SDS011;3106;42.670;23.318;2022-07-29T11:10:53;6.53;;;5.93;;
6149;SDS011;3106;42.670;23.318;2022-07-29T11:13:48;15.93;;;5.87;;
6149;SDS011;3106;42.670;23.318;2022-07-29T11:16:17;10.57;;;6.03;;
6149;SDS011;3106;42.670;23.318;2022-07-29T11:19:18;7.33;;;4.10;;
6149;SDS011;3106;42.670;23.318;2022-07-29T11:21:46;8.40;;;5.43;;
6149;SDS011;3106;42.670;23.318;2022-07-29T11:24:15;5.70;;;4.53;;
6149;SDS011;3106;42.670;23.318;2022-07-29T11:26:44;7.83;;;5.37;;
6149;SDS011;3106;42.670;23.318;2022-07-29T11:29:16;5.23;;;4.73;;
6149;SDS011;3106;42.670;23.318;2022-07-29T11:31:48;4.50;;;4.10;;
6149;SDS011;3106;42.670;23.318;2022-07-29T11:34:23;5.70;;;5.00;;
6149;SDS011;3106;42.670;23.318;2022-07-29T11:39:47;8.10;;;5.60;;
6149;SDS011;3106;42.670;23.318;2022-07-29T11:42:40;6.40;;;5.40;;
6149;SDS011;3106;42.670;23.318;2022-07-29T11:45:09;10.67;;;5.00;;
6149;SDS011;3106;42.670;23.318;2022-07-29T11:47:39;6.77;;;6.07;;
6149;SDS011;3106;42.670;23.318;2022-07-29T11:50:07;8.20;;;5.53;;
6149;SDS011;3106;42.670;23.318;2022-07-29T11:52:36;5.10;;;4.60;;
6149;SDS011;3106;42.670;23.318;2022-07-29T11:55:08;7.07;;;4.83;;
6149;SDS011;3106;42.670;23.318;2022-07-29T11:57:37;5.90;;;5.30;;
6149;SDS011;3106;42.670;23.318;2022-07-29T12:00:20;10.93;;;6.53;;
6149;SDS011;3106;42.670;23.318;2022-07-29T12:02:48;6.90;;;5.97;;
6149;SDS011;3106;42.670;23.318;2022-07-29T12:05:16;6.50;;;5.80;;
6149;SDS011;3106;42.670;23.318;2022-07-29T12:07:43;5.70;;;4.90;;
6149;SDS011;3106;42.670;23.318;2022-07-29T12:10:10;5.70;;;5.20;;
6149;SDS011;3106;42.670;23.318;2022-07-29T12:12:37;12.63;;;5.83;;
6149;SDS011;3106;42.670;23.318;2022-07-29T12:15:16;11.10;;;5.90;;
6149;SDS011;3106;42.670;23.318;2022-07-29T12:17:46;6.73;;;6.07;;
6149;SDS011;3106;42.670;23.318;2022-07-29T12:20:13;6.30;;;5.70;;
6149;SDS011;3106;42.670;23.318;2022-07-29T12:22:47;7.03;;;5.67;;
6149;SDS011;3106;42.670;23.318;2022-07-29T12:25:14;7.33;;;5.97;;
6149;SDS011;3106;42.670;23.318;2022-07-29T12:27:43;6.40;;;5.80;;
6149;SDS011;3106;42.670;23.318;2022-07-29T12:30:12;8.20;;;5.93;;
6149;SDS011;3106;42.670;23.318;2022-07-29T12:32:42;5.83;;;5.33;;
6149;SDS011;3106;42.670;23.318;2022-07-29T12:35:11;9.33;;;6.00;;
6149;SDS011;3106;42.670;23.318;2022-07-29T12:37:40;6.97;;;5.73;;
6149;SDS011;3106;42.670;23.318;2022-07-29T12:40:09;8.27;;;5.50;;
6149;SDS011;3106;42.670;23.318;2022-07-29T12:42:37;13.30;;;6.60;;
6149;SDS011;3106;42.670;23.318;2022-07-29T12:45:05;6.77;;;6.17;;
6149;SDS011;3106;42.670;23.318;2022-07-29T12:47:33;16.97;;;6.20;;
6149;SDS011;3106;42.670;23.318;2022-07-29T12:50:18;9.43;;;5.70;;
6149;SDS011;3106;42.670;23.318;2022-07-29T12:52:45;7.80;;;6.00;;
6149;SDS011;3106;42.670;23.318;2022-07-29T12:55:12;9.30;;;6.70;;
6149;SDS011;3106;42.670;23.318;2022-07-29T12:57:45;6.87;;;6.07;;
6149;SDS011;3106;42.670;23.318;2022-07-29T13:00:14;12.57;;;8.40;;
6149;SDS011;3106;42.670;23.318;2022-07-29T13:02:41;7.80;;;6.40;;
6149;SDS011;3106;42.670;23.318;2022-07-29T13:05:09;29.10;;;7.20;;
6149;SDS011;3106;42.670;23.318;2022-07-29T13:07:39;6.33;;;5.73;;
6149;SDS011;3106;42.670;23.318;2022-07-29T13:10:09;8.03;;;7.30;;
6149;SDS011;3106;42.670;23.318;2022-07-29T13:12:37;11.10;;;6.53;;
6149;SDS011;3106;42.670;23.318;2022-07-29T13:15:12;8.50;;;6.63;;
6149;SDS011;3106;42.670;23.318;2022-07-29T13:17:41;7.43;;;6.47;;
6149;SDS011;3106;42.670;23.318;2022-07-29T13:20:10;15.30;;;6.63;;
6149;SDS011;3106;42.670;23.318;2022-07-29T13:22:40;11.77;;;6.77;;
6149;SDS011;3106;42.670;23.318;2022-07-29T13:25:08;9.90;;;6.57;;
6149;SDS011;3106;42.670;23.318;2022-07-29T13:27:36;7.33;;;6.10;;
6149;SDS011;3106;42.670;23.318;2022-07-29T13:30:05;6.53;;;5.93;;
6149;SDS011;3106;42.670;23.318;2022-07-29T13:32:34;7.87;;;7.10;;
6149;SDS011;3106;42.670;23.318;2022-07-29T13:35:03;7.40;;;6.70;;
6149;SDS011;3106;42.670;23.318;2022-07-29T13:37:32;7.13;;;6.37;;
6149;SDS011;3106;42.670;23.318;2022-07-29T13:40:01;7.07;;;6.10;;
6149;SDS011;3106;42.670;23.318;2022-07-29T13:42:29;10.27;;;6.60;;
6149;SDS011;3106;42.670;23.318;2022-07-29T13:44:56;6.90;;;6.20;;
6149;SDS011;3106;42.670;23.318;2022-07-29T13:47:23;7.77;;;6.30;;
6149;SDS011;3106;42.670;23.318;2022-07-29T13:49:51;9.83;;;7.40;;
6149;SDS011;3106;42.670;23.318;2022-07-29T13:52:18;10.87;;;6.33;;
6149;SDS011;3106;42.670;23.318;2022-07-29T13:54:45;7.10;;;6.00;;
6149;SDS011;3106;42.670;23.318;2022-07-29T13:57:14;8.03;;;6.20;;
6149;SDS011;3106;42.670;23.318;2022-07-29T13:59:42;13.63;;;7.37;;
6149;SDS011;3106;42.670;23.318;2022-07-29T14:02:09;16.10;;;7.70;;
6149;SDS011;3106;42.670;23.318;2022-07-29T14:04:37;6.00;;;5.40;;
6149;SDS011;3106;42.670;23.318;2022-07-29T14:07:04;7.17;;;5.83;;
6149;SDS011;3106;42.670;23.318;2022-07-29T14:09:32;6.53;;;5.93;;
6149;SDS011;3106;42.670;23.318;2022-07-29T14:11:59;7.03;;;5.53;;
6149;SDS011;3106;42.670;23.318;2022-07-29T14:14:28;8.07;;;6.77;;
6149;SDS011;3106;42.670;23.318;2022-07-29T14:16:56;6.90;;;6.30;;
6149;SDS011;3106;42.670;23.318;2022-07-29T14:19:23;8.43;;;6.07;;
6149;SDS011;3106;42.670;23.318;2022-07-29T14:21:50;6.43;;;5.83;;
6149;SDS011;3106;42.670;23.318;2022-07-29T14:24:17;6.23;;;5.73;;
6149;SDS011;3106;42.670;23.318;2022-07-29T14:26:43;8.60;;;6.20;;
6149;SDS011;3106;42.670;23.318;2022-07-29T14:29:10;8.63;;;5.60;;
6149;SDS011;3106;42.670;23.318;2022-07-29T14:31:38;16.40;;;6.57;;
6149;SDS011;3106;42.670;23.318;2022-07-29T14:34:05;8.23;;;5.63;;
6149;SDS011;3106;42.670;23.318;2022-07-29T14:36:32;7.23;;;6.33;;
6149;SDS011;3106;42.670;23.318;2022-07-29T14:38:59;9.13;;;6.40;;
6149;SDS011;3106;42.670;23.318;2022-07-29T14:41:26;11.03;;;6.27;;
6149;SDS011;3106;42.670;23.318;2022-07-29T14:43:54;7.73;;;5.97;;
6149;SDS011;3106;42.670;23.318;2022-07-29T14:46:21;8.33;;;5.97;;
6149;SDS011;3106;42.670;23.318;2022-07-29T14:48:49;9.93;;;6.60;;
6149;SDS011;3106;42.670;23.318;2022-07-29T14:51:16;7.80;;;5.77;;
6149;SDS011;3106;42.670;23.318;2022-07-29T14:53:43;11.57;;;6.40;;
6149;SDS011;3106;42.670;23.318;2022-07-29T14:56:10;17.30;;;7.23;;
6149;SDS011;3106;42.670;23.318;2022-07-29T14:58:37;7.93;;;7.00;;
6149;SDS011;3106;42.670;23.318;2022-07-29T15:01:04;13.47;;;5.90;;
6149;SDS011;3106;42.670;23.318;2022-07-29T15:03:31;7.93;;;6.60;;
6149;SDS011;3106;42.670;23.318;2022-07-29T15:05:59;7.30;;;6.27;;
6149;SDS011;3106;42.670;23.318;2022-07-29T15:08:26;11.50;;;5.60;;
6149;SDS011;3106;42.670;23.318;2022-07-29T15:10:55;7.23;;;6.13;;
6149;SDS011;3106;42.670;23.318;2022-07-29T15:13:22;9.83;;;6.50;;
6149;SDS011;3106;42.670;23.318;2022-07-29T15:15:49;7.77;;;6.20;;
6149;SDS011;3106;42.670;23.318;2022-07-29T15:18:16;6.27;;;5.77;;